createdAt,value
2023-05-18T00:01:56.706Z,12.50
2023-05-18T00:04:26.747Z,12.40
2023-05-18T00:07:03.513Z,12.40
2023-05-18T00:09:34.387Z,12.40
2023-05-18T00:12:13.968Z,12.40
2023-05-18T00:14:43.394Z,12.30
2023-05-18T00:17:10.199Z,12.30
2023-05-18T00:19:40.701Z,12.30
2023-05-18T00:24:48.934Z,12.20
2023-05-18T00:27:15.924Z,12.30
2023-05-18T00:29:42.719Z,12.20
2023-05-18T00:32:09.550Z,12.20
2023-05-18T00:34:36.731Z,12.20
2023-05-18T00:37:03.581Z,12.20
2023-05-18T00:39:30.583Z,12.20
2023-05-18T00:41:57.438Z,12.10
2023-05-18T00:44:24.307Z,12.10
2023-05-18T00:46:54.147Z,12.10
2023-05-18T00:49:20.959Z,12.20
2023-05-18T00:51:48.026Z,12.10
2023-05-18T00:54:14.884Z,12.10
2023-05-18T00:56:42.485Z,12.00
2023-05-18T00:59:12.324Z,12.00
2023-05-18T01:01:43.902Z,11.90
2023-05-18T01:04:14.318Z,11.90
2023-05-18T01:06:42.085Z,11.90
2023-05-18T01:09:12.236Z,11.90
2023-05-18T01:12:06.139Z,11.90
2023-05-18T01:14:52.429Z,11.90
2023-05-18T01:17:41.144Z,11.90
2023-05-18T01:20:17.225Z,11.80
2023-05-18T01:22:56.571Z,11.70
2023-05-18T01:25:53.859Z,11.80
2023-05-18T01:28:31.649Z,11.80
2023-05-18T01:30:58.910Z,11.80
2023-05-18T01:33:26.005Z,11.70
2023-05-18T01:35:53.204Z,11.70
2023-05-18T01:38:24.227Z,11.70
2023-05-18T01:41:37.351Z,11.70
2023-05-18T01:44:20.194Z,11.70
2023-05-18T01:47:04.471Z,11.70
2023-05-18T01:49:35.112Z,11.70
2023-05-18T01:52:11.829Z,11.70
2023-05-18T01:54:41.534Z,11.70
2023-05-18T01:57:08.408Z,11.70
2023-05-18T01:59:35.315Z,11.70
2023-05-18T02:02:02.642Z,11.70
2023-05-18T02:04:29.560Z,11.60
2023-05-18T02:06:58.830Z,11.60
2023-05-18T02:09:25.898Z,11.50
2023-05-18T02:11:52.839Z,11.60
2023-05-18T02:14:19.688Z,11.60
2023-05-18T02:16:47.460Z,11.60
2023-05-18T02:19:14.968Z,11.50
2023-05-18T02:21:43.666Z,11.50
2023-05-18T02:24:10.885Z,11.50
2023-05-18T02:26:37.792Z,11.50
2023-05-18T02:29:09.575Z,11.50
2023-05-18T02:31:36.896Z,11.50
2023-05-18T02:34:04.072Z,11.50
2023-05-18T02:36:37.483Z,11.50
2023-05-18T02:39:05.233Z,11.50
2023-05-18T02:41:32.662Z,11.40
2023-05-18T02:43:59.559Z,11.40
2023-05-18T02:46:26.739Z,11.40
2023-05-18T02:48:53.815Z,11.40
2023-05-18T02:51:23.049Z,11.40
2023-05-18T02:53:50.764Z,11.40
2023-05-18T02:56:18.063Z,11.40
2023-05-18T02:58:45.051Z,11.40
2023-05-18T03:01:15.008Z,11.40
2023-05-18T03:03:44.468Z,11.40
2023-05-18T03:06:11.367Z,11.30
2023-05-18T03:08:38.396Z,11.30
2023-05-18T03:11:05.252Z,11.30
2023-05-18T03:13:32.101Z,11.30
2023-05-18T03:15:59.061Z,11.40
2023-05-18T03:18:26.032Z,11.30
2023-05-18T03:20:53.433Z,11.30
2023-05-18T03:23:20.518Z,11.20
2023-05-18T03:25:47.462Z,11.20
2023-05-18T03:28:25.463Z,11.20
2023-05-18T03:31:37.594Z,11.20
2023-05-18T03:34:04.734Z,11.10
2023-05-18T03:36:31.681Z,11.10
2023-05-18T03:38:58.592Z,11.00
2023-05-18T03:41:25.606Z,11.10
2023-05-18T03:43:52.495Z,10.90
2023-05-18T03:46:23.699Z,11.10
2023-05-18T03:48:51.500Z,11.00
2023-05-18T03:51:18.413Z,11.10
2023-05-18T03:53:45.394Z,11.10
2023-05-18T03:56:13.362Z,11.00
2023-05-18T03:58:42.434Z,10.90
2023-05-18T04:01:09.524Z,10.90
2023-05-18T04:03:36.488Z,10.80
2023-05-18T04:06:03.537Z,10.80
2023-05-18T04:08:30.608Z,10.80
2023-05-18T04:10:57.718Z,10.80
2023-05-18T04:13:27.791Z,10.80
2023-05-18T04:15:55.290Z,10.70
2023-05-18T04:18:25.165Z,10.60
2023-05-18T04:20:52.939Z,10.60
2023-05-18T04:23:20.168Z,10.50
2023-05-18T04:25:47.364Z,10.60
2023-05-18T04:28:14.382Z,10.50
2023-05-18T04:30:41.571Z,10.50
2023-05-18T04:33:08.680Z,10.40
2023-05-18T04:35:36.141Z,10.40
2023-05-18T04:38:13.422Z,10.30
2023-05-18T04:40:42.979Z,10.30
2023-05-18T04:43:10.868Z,10.30
2023-05-18T04:45:37.892Z,10.20
2023-05-18T04:48:05.623Z,10.30
2023-05-18T04:50:38.355Z,10.30
2023-05-18T04:53:07.798Z,10.20
2023-05-18T04:55:35.498Z,10.30
2023-05-18T04:58:06.250Z,10.30
2023-05-18T05:00:44.406Z,10.30
2023-05-18T05:03:11.629Z,10.30
2023-05-18T05:05:57.003Z,10.30
2023-05-18T05:08:23.941Z,10.30
2023-05-18T05:10:51.052Z,10.30
2023-05-18T05:13:17.899Z,10.30
2023-05-18T05:15:44.833Z,10.30
2023-05-18T05:18:11.917Z,10.30
2023-05-18T05:20:38.819Z,10.30
2023-05-18T05:23:05.944Z,10.30
2023-05-18T05:25:34.133Z,10.30
2023-05-18T05:28:01.045Z,10.30
2023-05-18T05:30:31.419Z,10.30
2023-05-18T05:32:58.486Z,10.30
2023-05-18T05:35:28.457Z,10.30
2023-05-18T05:38:16.675Z,10.30
2023-05-18T05:40:43.792Z,10.30
2023-05-18T05:43:10.688Z,10.30
2023-05-18T05:45:37.580Z,10.40
2023-05-18T05:48:04.737Z,10.40
2023-05-18T05:50:35.143Z,10.50
2023-05-18T05:53:03.266Z,10.50
2023-05-18T05:55:30.451Z,10.60
2023-05-18T05:57:57.494Z,10.60
2023-05-18T06:00:24.649Z,10.60
2023-05-18T06:02:51.776Z,10.70
2023-05-18T06:05:21.051Z,10.60
2023-05-18T06:07:48.152Z,10.80
2023-05-18T06:10:15.202Z,10.90
2023-05-18T06:12:42.018Z,11.00
2023-05-18T06:15:09.466Z,11.00
2023-05-18T06:17:36.387Z,11.10
2023-05-18T06:20:04.727Z,11.20
2023-05-18T06:22:31.832Z,11.20
2023-05-18T06:24:59.240Z,11.30
2023-05-18T06:27:26.500Z,11.40
2023-05-18T06:29:55.887Z,11.50
2023-05-18T06:32:22.904Z,11.50
2023-05-18T06:34:50.736Z,11.60
2023-05-18T06:37:18.263Z,11.70
2023-05-18T06:39:45.046Z,11.70
2023-05-18T06:42:11.840Z,11.80
2023-05-18T06:44:38.788Z,11.90
2023-05-18T06:47:06.353Z,11.90
2023-05-18T06:49:33.283Z,12.00
2023-05-18T06:52:00.462Z,12.00
2023-05-18T06:54:30.898Z,12.10
2023-05-18T06:56:57.937Z,12.10
2023-05-18T06:59:24.797Z,12.20
2023-05-18T07:01:51.809Z,12.30
2023-05-18T07:04:19.643Z,12.30
2023-05-18T07:06:46.795Z,12.40
2023-05-18T07:09:13.937Z,12.50
2023-05-18T07:11:40.889Z,12.50
2023-05-18T07:14:07.769Z,12.60
2023-05-18T07:16:35.561Z,12.70
2023-05-18T07:19:03.819Z,12.80
2023-05-18T07:21:31.519Z,12.90
2023-05-18T07:24:03.604Z,12.90
2023-05-18T07:26:30.661Z,13.10
2023-05-18T07:28:57.619Z,13.10
2023-05-18T07:31:24.734Z,13.10
2023-05-18T07:33:51.615Z,13.20
2023-05-18T07:36:18.507Z,13.30
2023-05-18T07:38:47.527Z,13.40
2023-05-18T07:41:23.226Z,13.50
2023-05-18T07:43:51.249Z,13.50
2023-05-18T07:46:18.736Z,13.60
2023-05-18T07:48:46.410Z,13.70
2023-05-18T07:51:23.044Z,13.70
2023-05-18T07:53:50.314Z,13.70
2023-05-18T07:56:18.102Z,13.70
2023-05-18T07:58:45.265Z,13.80
2023-05-18T08:01:14.795Z,13.80
2023-05-18T08:03:42.067Z,13.90
2023-05-18T08:06:09.007Z,13.90
2023-05-18T08:08:38.058Z,14.00
2023-05-18T08:11:05.763Z,14.00
2023-05-18T08:13:33.973Z,14.10
2023-05-18T08:16:11.157Z,14.20
2023-05-18T08:18:39.151Z,14.30
2023-05-18T08:21:11.935Z,14.30
2023-05-18T08:23:40.366Z,14.40
2023-05-18T08:26:11.850Z,14.50
2023-05-18T08:28:40.235Z,14.60
2023-05-18T08:31:07.350Z,14.60
2023-05-18T08:33:34.396Z,14.70
2023-05-18T08:36:01.619Z,14.70
2023-05-18T08:38:28.504Z,14.80
2023-05-18T08:41:05.323Z,14.90
2023-05-18T08:43:33.668Z,14.90
2023-05-18T08:46:22.572Z,15.00
2023-05-18T08:48:51.387Z,15.10
2023-05-18T08:51:20.346Z,15.10
2023-05-18T08:53:54.284Z,15.10
2023-05-18T08:56:29.500Z,15.20
2023-05-18T08:58:57.010Z,15.30
2023-05-18T09:01:28.500Z,15.30
2023-05-18T09:04:02.776Z,15.30
2023-05-18T09:06:30.145Z,15.40
2023-05-18T09:09:04.465Z,15.50
2023-05-18T09:11:32.334Z,15.60
2023-05-18T09:13:59.903Z,15.70
2023-05-18T09:16:27.011Z,15.80
2023-05-18T09:18:54.027Z,15.90
2023-05-18T09:21:21.233Z,16.00
2023-05-18T09:23:48.279Z,16.00
2023-05-18T09:26:18.205Z,16.00
2023-05-18T09:28:45.484Z,16.20
2023-05-18T09:31:17.518Z,16.40
2023-05-18T09:33:47.540Z,16.30
2023-05-18T09:36:18.225Z,16.40
2023-05-18T09:38:46.788Z,16.50
2023-05-18T09:41:17.625Z,16.60
2023-05-18T09:43:46.066Z,16.80
2023-05-18T09:46:13.769Z,17.00
2023-05-18T09:48:47.744Z,17.10
2023-05-18T09:51:17.023Z,17.10
2023-05-18T09:53:57.297Z,17.30
2023-05-18T09:56:25.079Z,17.50
2023-05-18T09:58:52.433Z,17.70
2023-05-18T10:01:19.435Z,17.90
2023-05-18T10:03:48.627Z,18.00
2023-05-18T10:06:17.742Z,18.00
2023-05-18T10:08:45.732Z,18.20
2023-05-18T10:11:12.820Z,18.20
2023-05-18T10:13:45.050Z,18.20
2023-05-18T10:16:12.523Z,18.30
2023-05-18T10:18:39.481Z,18.40
2023-05-18T10:21:07.929Z,18.50
2023-05-18T10:23:36.410Z,18.70
2023-05-18T10:26:07.707Z,18.80
2023-05-18T10:28:41.415Z,18.90
2023-05-18T10:31:08.628Z,19.00
2023-05-18T10:33:36.705Z,19.20
2023-05-18T10:36:10.086Z,19.30
2023-05-18T10:38:41.276Z,19.40
2023-05-18T10:41:08.476Z,19.40
2023-05-18T10:43:35.598Z,19.50
2023-05-18T10:46:02.898Z,19.50
2023-05-18T10:48:30.362Z,19.50
2023-05-18T10:50:58.108Z,19.60
2023-05-18T10:53:30.053Z,19.70
2023-05-18T10:55:56.985Z,19.80
2023-05-18T10:58:27.551Z,19.90
2023-05-18T11:00:59.019Z,20.10
2023-05-18T11:03:27.258Z,20.20
2023-05-18T11:06:05.034Z,20.40
2023-05-18T11:08:31.944Z,20.50
2023-05-18T11:11:04.160Z,20.70
2023-05-18T11:13:32.307Z,20.70
2023-05-18T11:15:59.533Z,20.80
2023-05-18T11:18:46.710Z,20.80
2023-05-18T11:21:32.953Z,20.70
2023-05-18T11:24:31.403Z,20.70
2023-05-18T11:27:20.373Z,20.70
2023-05-18T11:29:57.758Z,20.60
2023-05-18T11:32:33.181Z,20.50
2023-05-18T11:35:00.341Z,20.40
2023-05-18T11:37:39.605Z,20.40
2023-05-18T11:40:11.303Z,20.40
2023-05-18T11:42:38.810Z,20.30
2023-05-18T11:45:12.746Z,20.40
2023-05-18T11:47:41.510Z,20.30
2023-05-18T11:50:10.565Z,20.30
2023-05-18T11:52:51.750Z,20.30
2023-05-18T11:55:20.154Z,20.30
2023-05-18T11:57:53.467Z,20.30
2023-05-18T12:00:22.053Z,20.30
2023-05-18T12:02:49.390Z,20.40
2023-05-18T12:05:16.667Z,20.50
2023-05-18T12:07:52.915Z,20.60
2023-05-18T12:10:20.020Z,20.60
2023-05-18T12:12:53.709Z,20.60
2023-05-18T12:15:24.300Z,20.60
2023-05-18T12:17:51.463Z,20.60
2023-05-18T12:20:20.139Z,20.60
2023-05-18T12:22:53.268Z,20.50
2023-05-18T12:25:22.026Z,20.50
2023-05-18T12:27:49.426Z,20.50
2023-05-18T12:30:17.247Z,20.60
2023-05-18T12:32:54.989Z,20.60
2023-05-18T12:35:25.850Z,20.60
2023-05-18T12:37:52.816Z,20.60
2023-05-18T12:40:20.313Z,20.50
2023-05-18T12:42:58.315Z,20.60
2023-05-18T12:45:29.661Z,20.70
2023-05-18T12:47:57.389Z,20.90
2023-05-18T12:50:28.495Z,21.20
2023-05-18T12:52:56.705Z,21.30
2023-05-18T12:55:25.179Z,21.50
2023-05-18T12:58:08.657Z,21.70
2023-05-18T13:00:39.148Z,21.90
2023-05-18T13:03:16.054Z,22.00
2023-05-18T13:05:45.317Z,22.10
2023-05-18T13:08:18.244Z,22.20
2023-05-18T13:10:45.559Z,22.20
2023-05-18T13:13:15.452Z,22.10
2023-05-18T13:15:43.064Z,22.00
2023-05-18T13:18:10.929Z,22.00
2023-05-18T13:20:51.166Z,21.90
2023-05-18T13:23:22.696Z,22.00
2023-05-18T13:25:49.834Z,22.10
2023-05-18T13:28:20.501Z,22.10
2023-05-18T13:30:51.043Z,22.30
2023-05-18T13:33:21.668Z,22.40
2023-05-18T13:35:49.880Z,22.60
2023-05-18T13:38:17.050Z,22.80
2023-05-18T13:40:43.976Z,22.80
2023-05-18T13:43:13.549Z,22.90
2023-05-18T13:45:41.860Z,23.20
2023-05-18T13:48:10.692Z,23.40
2023-05-18T13:50:38.534Z,23.50
2023-05-18T13:53:06.815Z,23.80
2023-05-18T13:55:34.291Z,24.10
2023-05-18T13:58:01.419Z,24.20
2023-05-18T14:00:28.755Z,23.80
2023-05-18T14:02:59.216Z,23.50
2023-05-18T14:05:26.374Z,23.50
2023-05-18T14:07:53.524Z,23.70
2023-05-18T14:10:20.750Z,23.80
2023-05-18T14:12:48.027Z,23.80
2023-05-18T14:15:15.185Z,23.80
2023-05-18T14:17:43.054Z,23.90
2023-05-18T14:20:10.919Z,23.90
2023-05-18T14:22:37.780Z,24.00
2023-05-18T14:25:05.049Z,24.20
2023-05-18T14:27:32.358Z,24.30
2023-05-18T14:29:59.206Z,24.50
2023-05-18T14:32:26.249Z,24.50
2023-05-18T14:34:55.794Z,24.60
2023-05-18T14:37:25.138Z,24.60
2023-05-18T14:39:52.049Z,24.50
2023-05-18T14:42:19.033Z,24.40
2023-05-18T14:44:46.249Z,24.20
2023-05-18T14:47:13.147Z,24.20
2023-05-18T14:49:40.094Z,24.30
2023-05-18T14:52:07.173Z,24.40
2023-05-18T14:54:34.112Z,24.50
2023-05-18T14:57:01.408Z,24.60
2023-05-18T14:59:28.557Z,24.70
2023-05-18T15:01:55.641Z,24.80
2023-05-18T15:04:23.452Z,24.80
2023-05-18T15:06:50.488Z,24.80
2023-05-18T15:09:20.520Z,24.80
2023-05-18T15:11:47.793Z,24.80
2023-05-18T15:14:14.833Z,24.80
2023-05-18T15:16:42.859Z,24.80
2023-05-18T15:19:10.200Z,24.60
2023-05-18T15:21:37.069Z,24.70
2023-05-18T15:24:04.069Z,24.70
2023-05-18T15:26:33.797Z,24.70
2023-05-18T15:29:00.823Z,24.60
2023-05-18T15:31:27.878Z,24.70
2023-05-18T15:33:55.302Z,24.70
2023-05-18T15:36:22.252Z,24.70
2023-05-18T15:38:49.866Z,24.60
2023-05-18T15:41:16.951Z,24.50
2023-05-18T15:43:45.041Z,24.50
2023-05-18T15:46:12.128Z,24.50
2023-05-18T15:48:38.967Z,24.40
2023-05-18T15:51:06.079Z,24.40
2023-05-18T15:53:33.394Z,24.40
2023-05-18T15:56:00.583Z,24.30
2023-05-18T15:58:27.674Z,24.20
2023-05-18T16:00:54.719Z,24.10
2023-05-18T16:03:22.026Z,23.90
2023-05-18T16:05:49.278Z,23.60
2023-05-18T16:08:16.359Z,23.30
2023-05-18T16:10:43.490Z,23.10
2023-05-18T16:13:10.514Z,22.90
2023-05-18T16:15:37.483Z,22.70
2023-05-18T16:18:04.937Z,22.60
2023-05-18T16:20:32.497Z,22.40
2023-05-18T16:23:02.294Z,22.30
2023-05-18T16:25:29.401Z,22.10
2023-05-18T16:27:56.550Z,22.10
2023-05-18T16:30:26.204Z,21.90
2023-05-18T16:32:54.036Z,22.00
2023-05-18T16:35:21.242Z,21.90
2023-05-18T16:37:48.192Z,21.90
2023-05-18T16:40:15.686Z,21.90
2023-05-18T16:42:42.652Z,21.90
2023-05-18T16:45:09.957Z,21.90
2023-05-18T16:47:37.022Z,21.80
2023-05-18T16:50:04.490Z,21.70
2023-05-18T16:52:31.539Z,21.60
2023-05-18T16:54:58.697Z,21.50
2023-05-18T16:57:27.592Z,21.50
2023-05-18T16:59:54.740Z,21.40
2023-05-18T17:02:22.080Z,21.40
2023-05-18T17:04:51.898Z,21.30
2023-05-18T17:07:19.018Z,21.20
2023-05-18T17:09:45.940Z,21.20
2023-05-18T17:12:13.024Z,21.20
2023-05-18T17:14:39.991Z,21.20
2023-05-18T17:17:07.717Z,21.10
2023-05-18T17:19:39.385Z,21.00
2023-05-18T17:22:06.388Z,20.90
2023-05-18T17:24:33.486Z,20.80
2023-05-18T17:27:00.327Z,20.60
2023-05-18T17:29:27.545Z,20.40
2023-05-18T17:31:54.590Z,20.30
2023-05-18T17:34:22.353Z,20.10
2023-05-18T17:36:49.717Z,20.00
2023-05-18T17:39:16.857Z,19.80
2023-05-18T17:41:44.346Z,19.70
2023-05-18T17:44:14.537Z,19.60
2023-05-18T17:46:41.889Z,19.50
2023-05-18T17:49:09.246Z,19.40
2023-05-18T17:51:39.108Z,19.30
2023-05-18T17:54:06.192Z,19.20
2023-05-18T17:56:34.452Z,19.10
2023-05-18T17:59:01.396Z,19.00
2023-05-18T18:01:28.794Z,18.90
2023-05-18T18:03:56.766Z,18.90
2023-05-18T18:06:23.839Z,18.80
2023-05-18T18:08:51.593Z,18.80
2023-05-18T18:11:27.287Z,18.70
2023-05-18T18:13:54.503Z,18.80
2023-05-18T18:16:21.900Z,18.80
2023-05-18T18:18:49.055Z,18.90
2023-05-18T18:21:16.333Z,19.00
2023-05-18T18:23:43.431Z,19.00
2023-05-18T18:26:10.553Z,19.00
2023-05-18T18:28:37.835Z,19.00
2023-05-18T18:31:04.781Z,18.90
2023-05-18T18:33:32.885Z,18.80
2023-05-18T18:36:00.011Z,18.70
2023-05-18T18:38:29.580Z,18.60
2023-05-18T18:41:01.745Z,18.40
2023-05-18T18:43:28.903Z,18.30
2023-05-18T18:45:57.256Z,18.20
2023-05-18T18:48:24.708Z,18.00
2023-05-18T18:50:51.591Z,17.80
2023-05-18T18:53:18.779Z,17.70
2023-05-18T18:55:45.619Z,17.50
2023-05-18T18:58:12.395Z,17.40
2023-05-18T19:00:41.910Z,17.30
2023-05-18T19:03:14.540Z,17.20
2023-05-18T19:05:42.012Z,17.10
2023-05-18T19:08:09.036Z,17.00
2023-05-18T19:10:36.071Z,16.90
2023-05-18T19:13:05.398Z,16.70
2023-05-18T19:15:36.367Z,16.70
2023-05-18T19:18:04.146Z,16.60
2023-05-18T19:20:31.058Z,16.50
2023-05-18T19:22:58.241Z,16.50
2023-05-18T19:25:27.995Z,16.40
2023-05-18T19:27:55.125Z,16.30
2023-05-18T19:30:22.409Z,16.20
2023-05-18T19:32:50.239Z,16.10
2023-05-18T19:35:19.741Z,16.10
2023-05-18T19:37:50.237Z,16.00
2023-05-18T19:40:17.347Z,15.90
2023-05-18T19:42:44.425Z,15.90
2023-05-18T19:45:11.352Z,15.80
2023-05-18T19:47:38.504Z,15.80
2023-05-18T19:50:06.619Z,15.70
2023-05-18T19:52:33.871Z,15.60
2023-05-18T19:55:01.952Z,15.60
2023-05-18T19:57:29.197Z,15.50
2023-05-18T19:59:57.372Z,15.50
2023-05-18T20:02:24.706Z,15.40
2023-05-18T20:04:53.374Z,15.40
2023-05-18T20:07:20.851Z,15.30
2023-05-18T20:09:54.055Z,15.10
2023-05-18T20:12:21.453Z,15.20
2023-05-18T20:14:48.766Z,15.10
2023-05-18T20:17:16.785Z,15.00
2023-05-18T20:19:50.163Z,15.00
2023-05-18T20:22:30.493Z,14.90
2023-05-18T20:25:06.720Z,14.90
2023-05-18T20:27:33.836Z,14.80
2023-05-18T20:30:03.771Z,14.80
2023-05-18T20:32:32.821Z,14.80
2023-05-18T20:35:08.561Z,14.70
2023-05-18T20:37:35.566Z,14.70
2023-05-18T20:40:08.422Z,14.70
2023-05-18T20:42:40.600Z,14.60
2023-05-18T20:45:11.064Z,14.60
2023-05-18T20:47:37.979Z,14.50
2023-05-18T20:50:05.358Z,14.50
2023-05-18T20:52:32.298Z,14.40
2023-05-18T20:54:59.475Z,14.40
2023-05-18T20:57:28.469Z,14.30
2023-05-18T20:59:55.636Z,14.30
2023-05-18T21:02:22.814Z,14.30
2023-05-18T21:04:49.854Z,14.20
2023-05-18T21:07:18.035Z,14.20
2023-05-18T21:09:45.051Z,14.10
2023-05-18T21:12:11.944Z,14.10
2023-05-18T21:14:40.470Z,14.10
2023-05-18T21:17:07.545Z,14.00
2023-05-18T21:19:34.695Z,14.00
2023-05-18T21:22:01.898Z,13.90
2023-05-18T21:24:29.008Z,13.90
2023-05-18T21:26:56.299Z,13.80
2023-05-18T21:29:23.192Z,13.80
2023-05-18T21:31:50.353Z,13.70
2023-05-18T21:34:17.509Z,13.70
2023-05-18T21:36:44.320Z,13.70
2023-05-18T21:39:11.229Z,13.60
2023-05-18T21:41:42.452Z,13.60
2023-05-18T21:44:09.518Z,13.50
2023-05-18T21:46:37.006Z,13.50
2023-05-18T21:49:07.243Z,13.40
2023-05-18T21:51:34.474Z,13.40
2023-05-18T21:54:01.508Z,13.40
2023-05-18T21:56:28.727Z,13.30
2023-05-18T21:58:56.351Z,13.30
2023-05-18T22:01:24.109Z,13.30
2023-05-18T22:03:51.087Z,13.20
2023-05-18T22:06:21.135Z,13.20
2023-05-18T22:08:48.210Z,13.10
2023-05-18T22:11:15.112Z,13.10
2023-05-18T22:13:42.050Z,13.10
2023-05-18T22:16:11.971Z,13.10
2023-05-18T22:18:39.052Z,13.00
2023-05-18T22:21:16.354Z,13.00
2023-05-18T22:23:43.369Z,13.00
2023-05-18T22:26:13.661Z,12.90
2023-05-18T22:28:42.333Z,13.00
2023-05-18T22:31:09.503Z,12.90
2023-05-18T22:33:36.524Z,12.80
2023-05-18T22:36:04.707Z,12.80
2023-05-18T22:38:31.558Z,12.80
2023-05-18T22:40:58.380Z,12.70
2023-05-18T22:43:26.191Z,12.70
2023-05-18T22:45:53.142Z,12.70
2023-05-18T22:48:20.145Z,12.60
2023-05-18T22:50:47.102Z,12.60
2023-05-18T22:53:14.016Z,12.50
2023-05-18T22:55:41.250Z,12.50
2023-05-18T22:58:08.419Z,12.50
2023-05-18T23:00:35.408Z,12.40
2023-05-18T23:03:05.225Z,12.30
2023-05-18T23:05:32.827Z,12.30
2023-05-18T23:07:59.986Z,12.30
2023-05-18T23:10:26.995Z,12.30
2023-05-18T23:12:55.688Z,12.30
2023-05-18T23:15:23.084Z,12.20
2023-05-18T23:17:50.273Z,12.20
2023-05-18T23:20:17.281Z,12.20
2023-05-18T23:22:44.647Z,12.10
2023-05-18T23:25:11.497Z,12.10
2023-05-18T23:27:38.423Z,12.00
2023-05-18T23:30:06.125Z,12.00
2023-05-18T23:32:33.535Z,12.00
2023-05-18T23:35:00.866Z,11.90
2023-05-18T23:37:27.727Z,11.90
2023-05-18T23:39:54.570Z,11.90
2023-05-18T23:42:21.880Z,11.90
2023-05-18T23:44:48.988Z,11.80
2023-05-18T23:47:16.667Z,11.80
2023-05-18T23:49:49.694Z,11.80
2023-05-18T23:52:16.690Z,11.80
2023-05-18T23:54:45.646Z,11.80
2023-05-18T23:57:12.791Z,11.70
2023-05-18T23:59:39.797Z,11.70
